createdAt,value
2022-10-30T00:00:07.887Z,13.43
2022-10-30T00:00:29.934Z,13.73
2022-10-30T00:00:52.094Z,14.45
2022-10-30T00:01:14.284Z,13.50
2022-10-30T00:01:36.122Z,13.38
2022-10-30T00:01:58.021Z,13.75
2022-10-30T00:02:20.121Z,12.95
2022-10-30T00:02:42.195Z,13.30
2022-10-30T00:03:04.320Z,13.13
2022-10-30T00:03:26.579Z,13.52
2022-10-30T00:03:48.372Z,13.13
2022-10-30T00:04:10.505Z,13.05
2022-10-30T00:04:33.460Z,13.18
2022-10-30T00:04:55.686Z,13.40
2022-10-30T00:05:18.554Z,13.75
2022-10-30T00:05:42.093Z,13.48
2022-10-30T00:06:06.381Z,12.97
2022-10-30T00:06:28.226Z,13.25
2022-10-30T00:06:50.349Z,13.25
2022-10-30T00:07:12.105Z,13.25
2022-10-30T00:07:34.382Z,12.85
2022-10-30T00:07:57.265Z,13.27
2022-10-30T00:08:20.911Z,13.73
2022-10-30T00:08:43.071Z,13.90
2022-10-30T00:09:05.302Z,13.07
2022-10-30T00:09:27.068Z,13.20
2022-10-30T00:09:49.210Z,13.77
2022-10-30T00:10:10.941Z,13.23
2022-10-30T00:10:33.050Z,12.88
2022-10-30T00:10:55.291Z,12.60
2022-10-30T00:11:17.013Z,12.50
2022-10-30T00:11:39.166Z,12.95
2022-10-30T00:12:01.342Z,13.15
2022-10-30T00:12:23.140Z,13.18
2022-10-30T00:12:44.930Z,13.38
2022-10-30T00:13:07.123Z,13.27
2022-10-30T00:13:28.846Z,13.40
2022-10-30T00:13:50.756Z,13.38
2022-10-30T00:14:13.977Z,14.02
2022-10-30T00:14:35.741Z,13.48
2022-10-30T00:14:57.853Z,13.65
2022-10-30T00:15:19.635Z,13.38
2022-10-30T00:15:47.105Z,12.93
2022-10-30T00:16:09.382Z,13.30
2022-10-30T00:16:31.148Z,13.43
2022-10-30T00:16:53.261Z,13.55
2022-10-30T00:17:15.033Z,13.65
2022-10-30T00:17:37.200Z,13.93
2022-10-30T00:17:59.243Z,13.10
2022-10-30T00:18:21.773Z,13.00
2022-10-30T00:18:43.622Z,12.65
2022-10-30T00:19:05.388Z,12.95
2022-10-30T00:19:27.545Z,12.98
2022-10-30T00:19:49.647Z,13.40
2022-10-30T00:20:11.869Z,13.25
2022-10-30T00:20:36.560Z,14.02
2022-10-30T00:20:58.356Z,13.25
2022-10-30T00:21:20.764Z,13.15
2022-10-30T00:21:42.477Z,13.75
2022-10-30T00:22:25.993Z,13.70
2022-10-30T00:22:47.740Z,13.77
2022-10-30T00:23:09.813Z,14.05
2022-10-30T00:23:31.577Z,13.25
2022-10-30T00:23:54.316Z,13.25
2022-10-30T00:24:16.134Z,13.93
2022-10-30T00:24:37.828Z,14.50
2022-10-30T00:24:59.978Z,14.32
2022-10-30T00:25:21.833Z,13.77
2022-10-30T00:25:43.587Z,14.38
2022-10-30T00:26:07.180Z,13.88
2022-10-30T00:26:29.364Z,14.55
2022-10-30T00:26:51.474Z,14.52
2022-10-30T00:27:13.266Z,13.95
2022-10-30T00:27:35.044Z,14.70
2022-10-30T00:27:56.796Z,14.13
2022-10-30T00:28:18.616Z,14.48
2022-10-30T00:28:40.749Z,14.43
2022-10-30T00:29:02.889Z,14.98
2022-10-30T00:29:26.327Z,14.68
2022-10-30T00:29:48.101Z,14.10
2022-10-30T00:30:10.677Z,14.93
2022-10-30T00:30:33.219Z,14.73
2022-10-30T00:30:55.327Z,14.70
2022-10-30T00:31:17.504Z,15.15
2022-10-30T00:31:39.236Z,14.73
2022-10-30T00:32:00.958Z,14.60
2022-10-30T00:32:22.753Z,14.18
2022-10-30T00:32:44.987Z,13.75
2022-10-30T00:33:06.809Z,14.38
2022-10-30T00:33:28.725Z,14.13
2022-10-30T00:33:54.488Z,14.88
2022-10-30T00:34:16.772Z,14.43
2022-10-30T00:34:38.565Z,13.93
2022-10-30T00:35:00.363Z,14.38
2022-10-30T00:35:22.154Z,14.98
2022-10-30T00:35:49.820Z,14.90
2022-10-30T00:36:11.991Z,14.68
2022-10-30T00:36:33.716Z,14.23
2022-10-30T00:36:55.473Z,14.30
2022-10-30T00:37:17.275Z,14.15
2022-10-30T00:37:39.170Z,14.43
2022-10-30T00:38:01.674Z,14.02
2022-10-30T00:38:24.156Z,13.98
2022-10-30T00:38:46.277Z,14.80
2022-10-30T00:39:08.070Z,14.35
2022-10-30T00:39:30.230Z,14.45
2022-10-30T00:39:51.999Z,14.35
2022-10-30T00:40:16.089Z,14.75
2022-10-30T00:40:37.796Z,13.93
2022-10-30T00:40:59.946Z,14.32
2022-10-30T00:41:24.306Z,14.65
2022-10-30T00:41:46.484Z,14.35
2022-10-30T00:42:13.188Z,13.70
2022-10-30T00:42:35.534Z,14.55
2022-10-30T00:42:57.363Z,14.93
2022-10-30T00:43:31.811Z,14.23
2022-10-30T00:43:54.234Z,14.20
2022-10-30T00:44:34.951Z,14.07
2022-10-30T00:44:57.142Z,14.43
2022-10-30T00:45:19.015Z,14.60
2022-10-30T00:45:40.987Z,15.18
2022-10-30T00:46:11.594Z,14.82
2022-10-30T00:46:39.499Z,14.10
2022-10-30T00:47:05.949Z,14.98
2022-10-30T00:47:41.234Z,14.80
2022-10-30T00:48:04.565Z,14.68
2022-10-30T00:48:26.997Z,15.20
2022-10-30T00:49:06.039Z,14.75
2022-10-30T00:49:27.779Z,14.52
2022-10-30T00:50:03.176Z,14.65
2022-10-30T00:50:55.333Z,14.30
2022-10-30T00:51:18.084Z,15.27
2022-10-30T00:51:42.775Z,14.82
2022-10-30T00:52:06.186Z,14.20
2022-10-30T00:52:30.345Z,14.60
2022-10-30T00:52:58.405Z,15.55
2022-10-30T00:53:22.363Z,14.82
2022-10-30T00:53:44.653Z,14.70
2022-10-30T00:54:08.490Z,15.07
2022-10-30T00:54:30.359Z,14.45
2022-10-30T00:54:53.305Z,14.50
2022-10-30T00:55:17.911Z,14.45
2022-10-30T00:55:48.024Z,14.88
2022-10-30T00:56:10.762Z,14.30
2022-10-30T00:56:33.130Z,13.88
2022-10-30T00:56:56.192Z,14.53
2022-10-30T00:57:19.507Z,14.35
2022-10-30T00:57:42.266Z,14.13
2022-10-30T00:58:09.401Z,13.85
2022-10-30T00:58:36.782Z,14.05
2022-10-30T00:59:06.578Z,13.98
2022-10-30T00:59:30.672Z,14.55
2022-10-30T00:59:52.827Z,14.40
2022-10-30T01:00:15.738Z,14.65
2022-10-30T01:00:40.656Z,13.85
2022-10-30T01:01:09.607Z,14.25
2022-10-30T01:01:36.855Z,14.70
2022-10-30T01:02:01.052Z,13.90
2022-10-30T01:02:23.315Z,14.48
2022-10-30T01:02:45.909Z,14.50
2022-10-30T01:03:08.492Z,14.63
2022-10-30T01:03:31.289Z,13.80
2022-10-30T01:03:58.386Z,13.93
2022-10-30T01:04:25.889Z,13.63
2022-10-30T01:04:51.982Z,14.20
2022-10-30T01:05:17.747Z,14.23
2022-10-30T01:05:40.285Z,14.05
2022-10-30T01:06:03.706Z,14.55
2022-10-30T01:06:26.374Z,13.93
2022-10-30T01:06:52.084Z,13.68
2022-10-30T01:07:17.050Z,13.75
2022-10-30T01:07:38.818Z,14.23
2022-10-30T01:08:00.954Z,14.65
2022-10-30T01:08:23.537Z,14.70
2022-10-30T01:08:46.158Z,14.38
2022-10-30T01:09:08.384Z,14.57
2022-10-30T01:09:30.264Z,14.50
2022-10-30T01:09:52.172Z,14.20
2022-10-30T01:10:14.800Z,13.43
2022-10-30T01:10:36.670Z,13.65
2022-10-30T01:11:01.961Z,13.80
2022-10-30T01:11:23.737Z,13.77
2022-10-30T01:11:46.397Z,13.85
2022-10-30T01:12:08.789Z,14.05
2022-10-30T01:12:30.912Z,14.40
2022-10-30T01:12:55.158Z,14.63
2022-10-30T01:13:21.066Z,14.55
2022-10-30T01:13:43.975Z,15.25
2022-10-30T01:14:09.308Z,14.40
2022-10-30T01:14:31.617Z,14.07
2022-10-30T01:14:56.040Z,13.85
2022-10-30T01:15:23.351Z,14.35
2022-10-30T01:16:16.291Z,14.27
2022-10-30T01:16:46.594Z,14.48
2022-10-30T01:17:31.952Z,14.73
2022-10-30T01:18:29.281Z,13.68
2022-10-30T01:19:12.268Z,13.65
2022-10-30T01:19:48.547Z,13.80
2022-10-30T01:20:23.028Z,14.52
2022-10-30T01:20:53.284Z,13.55
2022-10-30T01:21:38.442Z,13.48
2022-10-30T01:22:15.397Z,13.65
2022-10-30T01:22:46.304Z,14.13
2022-10-30T01:23:21.513Z,13.70
2022-10-30T01:23:59.891Z,14.55
2022-10-30T01:24:53.510Z,13.77
2022-10-30T01:25:22.774Z,14.43
2022-10-30T01:26:18.227Z,13.93
2022-10-30T01:26:51.813Z,14.80
2022-10-30T01:27:13.906Z,14.50
2022-10-30T01:27:36.023Z,14.45
2022-10-30T01:28:04.166Z,14.38
2022-10-30T01:28:25.862Z,14.57
2022-10-30T01:29:14.662Z,14.23
2022-10-30T01:29:48.405Z,13.88
2022-10-30T01:30:16.021Z,13.82
2022-10-30T01:30:49.294Z,14.30
2022-10-30T01:31:24.314Z,14.43
2022-10-30T01:32:04.325Z,14.07
2022-10-30T01:32:26.863Z,14.82
2022-10-30T01:33:33.066Z,14.00
2022-10-30T01:34:06.898Z,14.45
2022-10-30T01:34:47.914Z,14.90
2022-10-30T01:35:20.299Z,14.80
2022-10-30T01:35:52.620Z,13.85
2022-10-30T01:36:21.250Z,15.15
2022-10-30T01:37:05.465Z,14.82
2022-10-30T01:37:45.873Z,14.25
2022-10-30T01:38:23.810Z,14.07
2022-10-30T01:38:53.824Z,14.70
2022-10-30T01:39:23.382Z,14.70
2022-10-30T01:39:45.121Z,15.02
2022-10-30T01:40:12.164Z,14.75
2022-10-30T01:40:34.072Z,14.25
2022-10-30T01:40:55.777Z,13.60
2022-10-30T01:41:17.961Z,14.05
2022-10-30T01:41:39.711Z,15.02
2022-10-30T01:42:08.981Z,15.52
2022-10-30T01:43:02.979Z,15.52
2022-10-30T01:43:25.150Z,15.55
2022-10-30T01:43:49.216Z,15.13
2022-10-30T01:44:23.072Z,15.38
2022-10-30T01:44:45.053Z,15.63
2022-10-30T01:45:07.538Z,15.75
2022-10-30T01:45:51.909Z,15.52
2022-10-30T01:46:16.894Z,15.85
2022-10-30T01:46:57.896Z,16.48
2022-10-30T01:47:23.021Z,15.50
2022-10-30T01:47:58.419Z,15.63
2022-10-30T01:48:20.837Z,16.42
2022-10-30T01:49:02.190Z,15.98
2022-10-30T01:49:30.058Z,16.67
2022-10-30T01:50:27.929Z,15.20
2022-10-30T01:51:17.577Z,16.25
2022-10-30T01:51:45.866Z,16.52
2022-10-30T01:52:44.707Z,17.27
2022-10-30T01:53:13.836Z,16.30
2022-10-30T01:54:01.496Z,16.75
2022-10-30T01:54:32.764Z,17.00
2022-10-30T01:55:05.985Z,16.45
2022-10-30T01:55:49.852Z,16.88
2022-10-30T01:56:46.470Z,15.90
2022-10-30T01:57:27.190Z,17.05
2022-10-30T01:57:58.176Z,16.73
2022-10-30T01:58:43.007Z,16.50
2022-10-30T01:59:18.093Z,15.85
2022-10-30T01:59:40.217Z,16.52
2022-10-30T02:00:11.189Z,16.40
2022-10-30T02:00:33.187Z,16.08
2022-10-30T02:00:57.691Z,17.10
2022-10-30T02:01:20.217Z,17.65
2022-10-30T02:01:43.093Z,17.08
2022-10-30T02:02:05.498Z,16.63
2022-10-30T02:02:27.909Z,16.95
2022-10-30T02:02:51.362Z,16.67
2022-10-30T02:03:14.929Z,16.83
2022-10-30T02:03:36.803Z,17.15
2022-10-30T02:03:59.091Z,17.50
2022-10-30T02:04:21.548Z,17.35
2022-10-30T02:04:44.246Z,16.88
2022-10-30T02:05:07.861Z,16.70
2022-10-30T02:05:38.923Z,16.55
2022-10-30T02:06:01.013Z,15.88
2022-10-30T02:06:22.949Z,16.35
2022-10-30T02:06:45.393Z,16.73
2022-10-30T02:07:07.566Z,17.23
2022-10-30T02:07:29.528Z,17.30
2022-10-30T02:07:51.674Z,17.10
2022-10-30T02:08:13.804Z,17.30
2022-10-30T02:08:35.687Z,17.80
2022-10-30T02:08:58.045Z,16.67
2022-10-30T02:09:19.802Z,16.60
2022-10-30T02:09:42.257Z,15.68
2022-10-30T02:10:05.218Z,16.27
2022-10-30T02:10:27.543Z,16.52
2022-10-30T02:10:51.985Z,17.17
2022-10-30T02:11:14.266Z,16.98
2022-10-30T02:11:37.479Z,16.40
2022-10-30T02:12:00.565Z,17.17
2022-10-30T02:12:23.671Z,17.42
2022-10-30T02:12:45.912Z,17.33
2022-10-30T02:13:08.047Z,17.00
2022-10-30T02:13:29.919Z,16.67
2022-10-30T02:13:53.414Z,16.92
2022-10-30T02:14:23.732Z,17.38
2022-10-30T02:14:47.390Z,17.48
2022-10-30T02:15:09.886Z,17.83
2022-10-30T02:15:32.393Z,17.40
2022-10-30T02:15:54.305Z,16.73
2022-10-30T02:16:16.146Z,17.38
2022-10-30T02:16:46.053Z,17.88
2022-10-30T02:17:09.157Z,16.85
2022-10-30T02:17:31.441Z,16.85
2022-10-30T02:17:54.622Z,17.43
2022-10-30T02:18:16.436Z,16.73
2022-10-30T02:18:38.746Z,17.50
2022-10-30T02:19:02.037Z,16.13
2022-10-30T02:19:24.175Z,17.10
2022-10-30T02:19:46.394Z,17.17
2022-10-30T02:20:14.384Z,17.25
2022-10-30T02:20:36.477Z,17.05
2022-10-30T02:20:58.599Z,17.08
2022-10-30T02:21:20.916Z,17.13
2022-10-30T02:21:43.260Z,16.67
2022-10-30T02:22:05.681Z,17.02
2022-10-30T02:22:27.865Z,16.73
2022-10-30T02:22:53.070Z,16.38
2022-10-30T02:23:19.510Z,16.02
2022-10-30T02:23:41.611Z,16.80
2022-10-30T02:24:03.411Z,16.88
2022-10-30T02:24:25.155Z,16.20
2022-10-30T02:24:47.295Z,16.70
2022-10-30T02:25:09.758Z,16.67
2022-10-30T02:25:31.967Z,15.77
2022-10-30T02:25:53.708Z,16.60
2022-10-30T02:26:15.816Z,16.92
2022-10-30T02:26:38.974Z,16.90
2022-10-30T02:27:00.900Z,16.42
2022-10-30T02:27:22.645Z,16.23
2022-10-30T02:27:44.811Z,16.40
2022-10-30T02:28:06.845Z,15.88
2022-10-30T02:28:28.563Z,16.30
2022-10-30T02:28:50.704Z,16.35
2022-10-30T02:29:13.002Z,16.10
2022-10-30T02:29:34.722Z,16.08
2022-10-30T02:29:56.454Z,16.70
2022-10-30T02:30:18.606Z,16.52
2022-10-30T02:30:44.130Z,17.30
2022-10-30T02:31:06.680Z,16.50
2022-10-30T02:31:28.839Z,16.33
2022-10-30T02:31:51.053Z,15.80
2022-10-30T02:32:12.801Z,16.20
2022-10-30T02:32:34.601Z,17.40
2022-10-30T02:32:56.811Z,16.73
2022-10-30T02:33:19.132Z,16.13
2022-10-30T02:33:44.594Z,16.42
2022-10-30T02:34:06.576Z,16.60
2022-10-30T02:34:28.738Z,16.63
2022-10-30T02:34:50.471Z,16.85
2022-10-30T02:35:12.656Z,16.88
2022-10-30T02:35:35.356Z,16.67
2022-10-30T02:35:57.533Z,16.60
2022-10-30T02:36:19.734Z,16.40
2022-10-30T02:36:41.871Z,15.98
2022-10-30T02:37:03.837Z,16.40
2022-10-30T02:37:25.619Z,16.15
2022-10-30T02:37:49.383Z,15.85
2022-10-30T02:38:11.531Z,16.20
2022-10-30T02:38:33.676Z,16.35
2022-10-30T02:38:55.434Z,15.85
2022-10-30T02:39:18.053Z,15.82
2022-10-30T02:39:39.792Z,16.20
2022-10-30T02:40:02.407Z,16.70
2022-10-30T02:40:24.139Z,16.15
2022-10-30T02:40:46.267Z,16.48
2022-10-30T02:41:08.071Z,16.80
2022-10-30T02:41:30.430Z,17.20
2022-10-30T02:41:52.168Z,16.60
2022-10-30T02:42:13.984Z,17.38
2022-10-30T02:42:36.647Z,16.45
2022-10-30T02:42:59.529Z,16.77
2022-10-30T02:43:21.233Z,16.85
2022-10-30T02:43:43.015Z,16.25
2022-10-30T02:44:06.548Z,16.27
2022-10-30T02:44:28.337Z,16.90
2022-10-30T02:44:50.462Z,16.55
2022-10-30T02:45:12.655Z,16.80
2022-10-30T02:45:34.436Z,16.63
2022-10-30T02:45:56.268Z,17.05
2022-10-30T02:46:18.513Z,16.73
2022-10-30T02:46:40.397Z,16.52
2022-10-30T02:47:02.137Z,16.02
2022-10-30T02:47:24.270Z,16.67
2022-10-30T02:47:46.016Z,15.27
2022-10-30T02:48:08.241Z,15.65
2022-10-30T02:48:33.185Z,16.30
2022-10-30T02:48:54.984Z,16.92
2022-10-30T02:49:16.871Z,16.70
2022-10-30T02:49:38.989Z,16.40
2022-10-30T02:50:00.790Z,16.50
2022-10-30T02:50:22.557Z,16.58
2022-10-30T02:50:44.665Z,16.38
2022-10-30T02:51:06.531Z,17.13
2022-10-30T02:51:28.423Z,16.38
2022-10-30T02:51:50.524Z,16.67
2022-10-30T02:52:12.793Z,16.58
2022-10-30T02:52:34.515Z,16.85
2022-10-30T02:52:56.923Z,16.10
2022-10-30T02:53:19.225Z,16.58
2022-10-30T02:53:41.346Z,16.60
2022-10-30T02:54:03.142Z,17.05
2022-10-30T02:54:25.896Z,15.98
2022-10-30T02:54:47.631Z,16.13
2022-10-30T02:55:09.966Z,16.02
2022-10-30T02:55:32.105Z,16.10
2022-10-30T02:55:54.293Z,16.92
2022-10-30T02:56:16.159Z,17.00
2022-10-30T02:56:40.763Z,16.65
2022-10-30T02:57:02.869Z,16.30
2022-10-30T02:57:24.762Z,17.15
2022-10-30T02:57:46.505Z,16.90
2022-10-30T02:58:08.228Z,17.10
2022-10-30T02:58:30.364Z,15.90
2022-10-30T02:58:52.171Z,16.67
2022-10-30T02:59:14.301Z,16.85
2022-10-30T02:59:36.198Z,16.60
2022-10-30T02:59:58.054Z,16.73
2022-10-30T03:00:20.250Z,16.13
2022-10-30T03:00:42.372Z,16.17
2022-10-30T03:01:09.644Z,16.30
2022-10-30T03:01:31.518Z,17.27
2022-10-30T03:01:53.690Z,16.95
2022-10-30T03:02:15.552Z,17.63
2022-10-30T03:02:37.414Z,16.95
2022-10-30T03:02:59.535Z,17.00
2022-10-30T03:03:24.101Z,17.02
2022-10-30T03:03:47.185Z,17.17
2022-10-30T03:04:09.301Z,17.15
2022-10-30T03:04:31.726Z,16.75
2022-10-30T03:04:53.831Z,17.35
2022-10-30T03:05:15.635Z,16.63
2022-10-30T03:05:37.939Z,17.08
2022-10-30T03:06:06.896Z,17.73
2022-10-30T03:06:28.630Z,17.50
2022-10-30T03:06:50.374Z,17.77
2022-10-30T03:07:12.865Z,17.63
2022-10-30T03:07:34.605Z,16.92
2022-10-30T03:07:57.109Z,18.40
2022-10-30T03:08:19.039Z,18.20
2022-10-30T03:08:41.208Z,16.98
2022-10-30T03:09:03.386Z,17.40
2022-10-30T03:09:25.166Z,17.45
2022-10-30T03:09:48.515Z,17.25
2022-10-30T03:10:10.231Z,17.63
2022-10-30T03:10:31.957Z,17.83
2022-10-30T03:10:59.489Z,18.17
2022-10-30T03:11:21.310Z,17.13
2022-10-30T03:11:44.442Z,17.23
2022-10-30T03:12:06.404Z,17.58
2022-10-30T03:12:28.516Z,18.27
2022-10-30T03:12:50.695Z,18.20
2022-10-30T03:13:12.859Z,17.70
2022-10-30T03:13:35.789Z,17.80
2022-10-30T03:13:57.919Z,17.20
2022-10-30T03:14:19.634Z,16.58
2022-10-30T03:14:41.471Z,17.38
2022-10-30T03:15:03.666Z,16.95
2022-10-30T03:15:25.846Z,16.67
2022-10-30T03:15:47.574Z,17.65
2022-10-30T03:16:12.001Z,17.30
2022-10-30T03:16:33.847Z,17.20
2022-10-30T03:16:55.557Z,17.10
2022-10-30T03:17:17.337Z,17.63
2022-10-30T03:17:39.084Z,17.30
2022-10-30T03:18:01.666Z,17.83
2022-10-30T03:18:23.445Z,17.73
2022-10-30T03:18:46.002Z,17.75
2022-10-30T03:19:07.771Z,18.35
2022-10-30T03:19:29.881Z,17.55
2022-10-30T03:19:51.978Z,17.67
2022-10-30T03:20:13.715Z,17.70
2022-10-30T03:20:35.847Z,18.08
2022-10-30T03:20:59.949Z,17.55
2022-10-30T03:21:23.374Z,17.65
2022-10-30T03:21:45.485Z,17.30
2022-10-30T03:22:07.546Z,17.88
2022-10-30T03:22:29.942Z,17.67
2022-10-30T03:22:51.683Z,17.73
2022-10-30T03:23:13.458Z,17.83
2022-10-30T03:23:35.664Z,17.77
2022-10-30T03:23:57.534Z,17.40
2022-10-30T03:24:19.676Z,17.63
2022-10-30T03:24:41.860Z,17.40
2022-10-30T03:25:04.171Z,17.30
2022-10-30T03:25:25.968Z,17.25
2022-10-30T03:25:47.661Z,17.58
2022-10-30T03:26:09.865Z,17.90
2022-10-30T03:26:31.617Z,16.92
2022-10-30T03:26:53.722Z,17.67
2022-10-30T03:27:15.457Z,17.55
2022-10-30T03:27:37.253Z,17.85
2022-10-30T03:27:59.412Z,18.05
2022-10-30T03:28:25.916Z,17.85
2022-10-30T03:28:48.186Z,17.88
2022-10-30T03:29:10.289Z,18.10
2022-10-30T03:29:32.085Z,18.27
2022-10-30T03:29:53.803Z,18.33
2022-10-30T03:30:15.952Z,18.50
2022-10-30T03:30:37.691Z,17.92
2022-10-30T03:31:00.747Z,17.83
2022-10-30T03:31:23.651Z,18.02
2022-10-30T03:31:45.345Z,18.02
2022-10-30T03:32:11.669Z,17.85
2022-10-30T03:32:33.467Z,18.13
2022-10-30T03:32:55.883Z,18.13
2022-10-30T03:33:18.331Z,17.73
2022-10-30T03:33:40.569Z,17.75
2022-10-30T03:34:02.827Z,17.38
2022-10-30T03:34:24.603Z,17.85
2022-10-30T03:34:46.770Z,17.42
2022-10-30T03:35:08.680Z,17.10
2022-10-30T03:35:30.473Z,17.50
2022-10-30T03:35:52.475Z,18.00
2022-10-30T03:36:15.233Z,18.25
2022-10-30T03:36:36.964Z,17.05
2022-10-30T03:36:58.694Z,17.85
2022-10-30T03:37:20.825Z,17.63
2022-10-30T03:37:42.597Z,17.42
2022-10-30T03:38:04.707Z,17.70
2022-10-30T03:38:27.138Z,17.73
2022-10-30T03:38:48.957Z,18.77
2022-10-30T03:39:10.721Z,18.30
2022-10-30T03:39:32.515Z,17.83
2022-10-30T03:39:54.633Z,18.10
2022-10-30T03:40:16.773Z,17.10
2022-10-30T03:40:38.961Z,18.42
2022-10-30T03:41:01.137Z,17.48
2022-10-30T03:41:22.895Z,18.30
2022-10-30T03:41:45.098Z,17.95
2022-10-30T03:42:06.924Z,17.92
2022-10-30T03:42:29.035Z,17.48
2022-10-30T03:42:51.142Z,17.17
2022-10-30T03:43:12.910Z,17.63
2022-10-30T03:43:35.148Z,17.55
2022-10-30T03:43:56.888Z,17.52
2022-10-30T03:44:18.691Z,17.30
2022-10-30T03:44:40.422Z,17.08
2022-10-30T03:45:02.633Z,17.60
2022-10-30T03:45:24.379Z,17.27
2022-10-30T03:45:47.583Z,17.05
2022-10-30T03:46:10.447Z,17.50
2022-10-30T03:46:32.646Z,17.95
2022-10-30T03:46:54.371Z,17.90
2022-10-30T03:47:16.136Z,17.27
2022-10-30T03:47:40.597Z,17.80
2022-10-30T03:48:02.934Z,17.38
2022-10-30T03:48:26.105Z,15.73
2022-10-30T03:48:50.828Z,16.35
2022-10-30T03:49:12.543Z,17.20
2022-10-30T03:49:34.306Z,17.27
2022-10-30T03:49:56.422Z,17.20
2022-10-30T03:50:18.188Z,16.90
2022-10-30T03:50:39.994Z,17.77
2022-10-30T03:51:01.989Z,17.52
2022-10-30T03:51:23.690Z,17.60
2022-10-30T03:51:45.471Z,16.73
2022-10-30T03:52:07.183Z,16.60
2022-10-30T03:52:28.903Z,17.02
2022-10-30T03:52:50.621Z,17.58
2022-10-30T03:53:12.817Z,16.98
2022-10-30T03:53:34.939Z,17.67
2022-10-30T03:53:56.818Z,17.95
2022-10-30T03:54:18.618Z,16.67
2022-10-30T03:54:40.375Z,16.77
2022-10-30T03:55:02.093Z,16.80
2022-10-30T03:55:24.761Z,16.73
2022-10-30T03:55:46.560Z,16.90
2022-10-30T03:56:08.736Z,16.70
2022-10-30T03:56:30.549Z,17.13
2022-10-30T03:56:52.272Z,16.85
2022-10-30T03:57:14.652Z,17.05
2022-10-30T03:57:39.680Z,16.52
2022-10-30T03:58:01.489Z,17.00
2022-10-30T03:58:23.644Z,17.05
2022-10-30T03:58:45.827Z,16.85
2022-10-30T03:59:07.956Z,17.35
2022-10-30T03:59:30.080Z,17.60
2022-10-30T03:59:52.204Z,16.63
2022-10-30T04:00:14.892Z,17.27
2022-10-30T04:00:36.771Z,16.90
2022-10-30T04:01:07.501Z,17.77
2022-10-30T04:01:29.829Z,17.08
2022-10-30T04:01:51.908Z,17.52
2022-10-30T04:02:14.315Z,17.00
2022-10-30T04:02:36.553Z,16.65
2022-10-30T04:02:59.041Z,17.63
2022-10-30T04:03:21.093Z,17.08
2022-10-30T04:03:42.896Z,16.45
2022-10-30T04:04:04.634Z,16.92
2022-10-30T04:04:26.765Z,17.10
2022-10-30T04:04:48.493Z,16.67
2022-10-30T04:05:10.284Z,16.63
2022-10-30T04:05:32.447Z,16.30
2022-10-30T04:05:54.275Z,16.38
2022-10-30T04:06:16.074Z,16.20
2022-10-30T04:06:37.805Z,16.40
2022-10-30T04:06:59.520Z,17.33
2022-10-30T04:07:21.348Z,17.80
2022-10-30T04:07:43.573Z,17.10
2022-10-30T04:08:07.492Z,16.70
2022-10-30T04:08:29.713Z,17.27
2022-10-30T04:08:51.828Z,17.38
2022-10-30T04:09:13.569Z,16.38
2022-10-30T04:09:35.350Z,16.73
2022-10-30T04:09:57.087Z,17.40
2022-10-30T04:10:21.151Z,17.40
2022-10-30T04:10:47.017Z,17.00
2022-10-30T04:11:13.816Z,16.50
2022-10-30T04:11:35.575Z,17.08
2022-10-30T04:11:57.685Z,16.90
2022-10-30T04:12:19.471Z,16.30
2022-10-30T04:12:41.268Z,16.75
2022-10-30T04:13:04.408Z,17.52
2022-10-30T04:13:26.565Z,17.88
2022-10-30T04:13:48.324Z,17.38
2022-10-30T04:14:10.069Z,16.98
2022-10-30T04:14:32.263Z,16.25
2022-10-30T04:14:54.505Z,16.35
2022-10-30T04:15:16.693Z,16.63
2022-10-30T04:15:39.043Z,16.35
2022-10-30T04:16:01.227Z,16.45
2022-10-30T04:16:22.952Z,16.88
2022-10-30T04:16:44.695Z,16.50
2022-10-30T04:17:06.473Z,15.95
2022-10-30T04:17:28.667Z,16.60
2022-10-30T04:17:51.503Z,16.70
2022-10-30T04:18:16.289Z,16.55
2022-10-30T04:18:38.055Z,16.65
2022-10-30T04:18:59.909Z,17.40
2022-10-30T04:19:21.634Z,17.50
2022-10-30T04:19:43.352Z,15.95
2022-10-30T04:20:05.737Z,16.77
2022-10-30T04:20:28.157Z,17.00
2022-10-30T04:20:49.984Z,18.00
2022-10-30T04:21:11.764Z,17.47
2022-10-30T04:21:33.699Z,17.60
2022-10-30T04:21:55.440Z,17.02
2022-10-30T04:22:17.292Z,15.65
2022-10-30T04:22:39.412Z,16.23
2022-10-30T04:23:04.098Z,16.30
2022-10-30T04:23:25.913Z,17.10
2022-10-30T04:23:48.911Z,16.77
2022-10-30T04:24:10.723Z,16.75
2022-10-30T04:24:32.460Z,17.38
2022-10-30T04:24:54.685Z,16.70
2022-10-30T04:25:16.852Z,15.77
2022-10-30T04:25:38.952Z,16.40
2022-10-30T04:26:02.078Z,16.83
2022-10-30T04:26:23.841Z,17.02
2022-10-30T04:26:45.577Z,17.17
2022-10-30T04:27:07.752Z,16.90
2022-10-30T04:27:29.897Z,17.13
2022-10-30T04:27:53.105Z,16.13
2022-10-30T04:28:15.480Z,16.48
2022-10-30T04:28:37.611Z,16.38
2022-10-30T04:28:59.706Z,16.70
2022-10-30T04:29:21.448Z,17.13
2022-10-30T04:29:43.571Z,16.60
2022-10-30T04:30:05.960Z,15.45
2022-10-30T04:30:28.193Z,16.33
2022-10-30T04:30:49.988Z,16.88
2022-10-30T04:31:11.958Z,16.73
2022-10-30T04:31:33.708Z,16.45
2022-10-30T04:31:55.937Z,16.25
2022-10-30T04:32:19.302Z,15.95
2022-10-30T04:32:51.794Z,16.48
2022-10-30T04:33:14.551Z,15.45
2022-10-30T04:33:36.265Z,16.25
2022-10-30T04:33:58.205Z,16.25
2022-10-30T04:34:20.661Z,16.67
2022-10-30T04:34:42.842Z,16.70
2022-10-30T04:35:04.857Z,16.65
2022-10-30T04:35:28.371Z,16.67
2022-10-30T04:35:50.085Z,16.40
2022-10-30T04:36:12.211Z,17.30
2022-10-30T04:36:34.338Z,17.55
2022-10-30T04:36:56.111Z,17.00
2022-10-30T04:37:17.846Z,17.17
2022-10-30T04:37:39.598Z,17.40
2022-10-30T04:38:03.432Z,17.23
2022-10-30T04:38:25.295Z,17.77
2022-10-30T04:38:47.027Z,17.33
2022-10-30T04:39:09.146Z,17.25
2022-10-30T04:39:31.352Z,17.13
2022-10-30T04:39:53.156Z,16.88
2022-10-30T04:40:15.339Z,16.05
2022-10-30T04:40:38.939Z,16.17
2022-10-30T04:41:01.047Z,16.33
2022-10-30T04:41:22.809Z,16.60
2022-10-30T04:41:44.977Z,17.35
2022-10-30T04:42:06.688Z,17.00
2022-10-30T04:42:28.987Z,16.77
2022-10-30T04:42:51.015Z,17.00
2022-10-30T04:43:13.901Z,17.33
2022-10-30T04:43:35.719Z,17.65
2022-10-30T04:43:57.459Z,17.27
2022-10-30T04:44:19.597Z,16.63
2022-10-30T04:44:41.726Z,17.08
2022-10-30T04:45:05.016Z,16.77
2022-10-30T04:45:27.008Z,16.70
2022-10-30T04:45:49.121Z,17.17
2022-10-30T04:46:11.402Z,18.02
2022-10-30T04:46:33.561Z,17.77
2022-10-30T04:46:55.708Z,18.77
2022-10-30T04:47:18.021Z,19.17
2022-10-30T04:47:39.817Z,19.42
2022-10-30T04:48:03.125Z,19.83
2022-10-30T04:48:24.878Z,20.95
2022-10-30T04:48:47.008Z,21.17
2022-10-30T04:49:09.383Z,21.88
2022-10-30T04:49:31.134Z,23.00
2022-10-30T04:49:52.845Z,23.80
2022-10-30T04:50:15.566Z,23.88
2022-10-30T04:50:39.313Z,25.63
2022-10-30T04:51:01.587Z,25.98
2022-10-30T04:51:24.440Z,25.08
2022-10-30T04:51:47.440Z,25.52
2022-10-30T04:52:09.988Z,24.48
2022-10-30T04:52:32.040Z,25.65
2022-10-30T04:53:07.959Z,24.67
2022-10-30T04:53:30.086Z,22.70
2022-10-30T04:53:51.862Z,23.25
2022-10-30T04:54:13.585Z,22.45
2022-10-30T04:54:35.286Z,21.05
2022-10-30T04:54:56.999Z,20.67
2022-10-30T04:55:19.120Z,20.85
2022-10-30T04:55:41.395Z,20.48
2022-10-30T04:56:03.527Z,18.65
2022-10-30T04:56:25.685Z,17.80
2022-10-30T04:56:47.877Z,18.02
2022-10-30T04:57:09.599Z,17.77
2022-10-30T04:57:32.004Z,18.75
2022-10-30T04:57:57.570Z,18.30
2022-10-30T04:58:19.936Z,17.52
2022-10-30T04:58:42.057Z,17.50
2022-10-30T04:59:04.697Z,17.13
2022-10-30T04:59:26.828Z,17.40
2022-10-30T04:59:48.634Z,18.33
2022-10-30T05:00:11.910Z,17.83
2022-10-30T05:00:34.100Z,18.00
2022-10-30T05:01:00.423Z,18.38
2022-10-30T05:01:33.426Z,19.65
2022-10-30T05:01:55.321Z,18.67
2022-10-30T05:02:19.643Z,17.80
2022-10-30T05:02:41.634Z,17.40
2022-10-30T05:03:03.840Z,18.55
2022-10-30T05:03:25.962Z,18.75
2022-10-30T05:03:50.591Z,17.10
2022-10-30T05:04:15.826Z,18.30
2022-10-30T05:04:37.946Z,17.20
2022-10-30T05:04:59.724Z,17.65
2022-10-30T05:05:21.718Z,17.15
2022-10-30T05:05:44.148Z,16.63
2022-10-30T05:06:16.927Z,16.85
2022-10-30T05:06:39.234Z,16.55
2022-10-30T05:07:03.666Z,16.02
2022-10-30T05:07:25.832Z,16.80
2022-10-30T05:07:47.618Z,16.42
2022-10-30T05:08:09.405Z,16.75
2022-10-30T05:08:31.626Z,16.95
2022-10-30T05:08:53.441Z,17.50
2022-10-30T05:09:15.175Z,16.73
2022-10-30T05:09:36.892Z,16.08